Time;durP1;ratioP1;P1;durP2;ratioP2;P2;SDS_P1;SDS_P2;PMS_P1;PMS_P2;Temp;Humidity;BMP_temperature;BMP_pressure;BME280_temperature;BME280_humidity;BME280_pressure;Samples;Min_cycle;Max_cycle;Signal;HPM_P1;HPM_P2
2022/03/09 00:01:38;;;;;;;16.73;11.70;;;-2.80;99.90;;;;;;5071839;28;20464;-75
2022/03/09 00:04:06;;;;;;;15.30;11.17;;;-2.80;99.90;;;;;;5072173;28;20824;-76
2022/03/09 00:06:36;;;;;;;17.03;10.73;;;-2.80;99.90;;;;;;5072078;28;20469;-76
2022/03/09 00:09:04;;;;;;;17.60;11.90;;;-2.80;99.90;;;;;;5072269;28;20445;-75
2022/03/09 00:11:33;;;;;;;15.20;10.70;;;-2.90;99.90;;;;;;5072398;28;20438;-74
2022/03/09 00:14:05;;;;;;;16.57;11.63;;;-2.90;99.90;;;;;;5074169;28;20469;-75
2022/03/09 00:16:34;;;;;;;16.73;10.63;;;-2.90;99.90;;;;;;5073333;28;20612;-76
2022/03/09 00:19:09;;;;;;;17.30;11.10;;;-2.90;99.90;;;;;;5073065;28;20567;-74
2022/03/09 00:21:38;;;;;;;16.10;11.67;;;-3.00;99.90;;;;;;5072947;28;20487;-75
2022/03/09 00:24:07;;;;;;;16.83;10.97;;;-3.00;99.90;;;;;;5072077;28;20513;-74
2022/03/09 00:26:35;;;;;;;14.43;11.00;;;-3.00;99.90;;;;;;5072075;28;20492;-76
2022/03/09 00:29:07;;;;;;;15.03;11.47;;;-3.00;99.90;;;;;;5083773;28;20453;-76
2022/03/09 00:31:36;;;;;;;16.93;11.23;;;-3.10;99.90;;;;;;5078425;28;20433;-77
2022/03/09 00:34:04;;;;;;;18.57;12.80;;;-3.10;99.90;;;;;;5076248;28;20457;-75
2022/03/09 00:36:32;;;;;;;20.07;12.03;;;-3.10;99.90;;;;;;5074827;28;20477;-76
2022/03/09 00:39:00;;;;;;;19.50;12.70;;;-3.10;99.90;;;;;;5074280;28;20414;-75
2022/03/09 00:41:30;;;;;;;17.70;12.40;;;-3.20;99.90;;;;;;5077207;28;20555;-77
2022/03/09 00:44:02;;;;;;;17.93;12.27;;;-3.20;99.90;;;;;;5071746;28;20468;-76
2022/03/09 00:46:32;;;;;;;20.27;12.70;;;-3.20;99.90;;;;;;5071490;28;20480;-74
2022/03/09 00:49:00;;;;;;;19.37;12.80;;;-3.20;99.90;;;;;;5071864;28;20442;-75
2022/03/09 00:51:28;;;;;;;19.37;12.90;;;-3.30;99.90;;;;;;5071100;28;20540;-75
2022/03/09 00:53:57;;;;;;;18.47;12.30;;;-3.30;99.90;;;;;;5071472;28;20453;-75
2022/03/09 00:56:25;;;;;;;19.23;13.10;;;-3.30;99.90;;;;;;5071482;28;20456;-75
2022/03/09 00:58:54;;;;;;;20.37;13.17;;;-3.30;99.90;;;;;;5068698;28;20501;-76
2022/03/09 01:01:25;;;;;;;19.27;11.97;;;-3.30;99.90;;;;;;5073386;28;20484;-77
2022/03/09 01:03:57;;;;;;;19.03;12.60;;;-3.30;99.90;;;;;;5073348;28;20470;-75
2022/03/09 01:06:26;;;;;;;17.50;12.37;;;-3.30;99.90;;;;;;5074726;28;20507;-74
2022/03/09 01:08:54;;;;;;;17.70;11.77;;;-3.30;99.90;;;;;;5074700;28;20542;-76
2022/03/09 01:11:22;;;;;;;18.33;12.40;;;-3.30;99.90;;;;;;5073931;28;20601;-75
2022/03/09 01:13:51;;;;;;;17.93;12.27;;;-3.30;99.90;;;;;;5074598;28;20505;-75
2022/03/09 01:16:19;;;;;;;18.07;12.50;;;-3.30;99.90;;;;;;5073617;28;20465;-75
2022/03/09 01:18:47;;;;;;;18.50;12.60;;;-3.30;99.90;;;;;;5074811;28;20441;-75
2022/03/09 01:21:17;;;;;;;17.90;12.43;;;-3.40;99.90;;;;;;5073859;28;20472;-76
2022/03/09 01:23:46;;;;;;;18.60;12.83;;;-3.40;99.90;;;;;;5074765;28;20524;-76
2022/03/09 01:26:14;;;;;;;17.93;13.10;;;-3.40;99.90;;;;;;5074095;28;20866;-78
2022/03/09 01:28:47;;;;;;;21.97;13.37;;;-3.50;99.90;;;;;;5074225;28;20435;-78
2022/03/09 01:31:16;;;;;;;19.97;13.07;;;-3.50;99.90;;;;;;5073851;28;20487;-77
2022/03/09 01:33:44;;;;;;;18.70;13.10;;;-3.50;99.90;;;;;;5058633;28;20482;-75
2022/03/09 01:36:12;;;;;;;19.07;13.03;;;-3.60;99.90;;;;;;5060801;28;20540;-76
2022/03/09 01:38:42;;;;;;;17.17;11.53;;;-3.60;99.90;;;;;;5074121;28;20552;-79
2022/03/09 01:41:11;;;;;;;18.27;12.30;;;-3.60;99.90;;;;;;5074275;28;20512;-77
2022/03/09 01:43:40;;;;;;;19.53;13.37;;;-3.50;99.90;;;;;;5073564;28;20544;-77
2022/03/09 01:46:08;;;;;;;18.20;13.07;;;-3.50;99.90;;;;;;5073835;28;20958;-77
2022/03/09 01:48:37;;;;;;;17.20;12.50;;;-3.50;99.90;;;;;;5073529;28;20461;-78
2022/03/09 01:51:05;;;;;;;19.87;13.83;;;-3.50;99.90;;;;;;5073640;28;20603;-76
2022/03/09 01:53:33;;;;;;;18.50;12.97;;;-3.50;99.90;;;;;;5073608;28;20502;-75
2022/03/09 01:56:06;;;;;;;22.23;13.67;;;-3.50;99.90;;;;;;5073508;28;20458;-76
2022/03/09 01:58:35;;;;;;;17.67;13.23;;;-3.40;99.90;;;;;;5073377;28;20508;-78
2022/03/09 02:01:08;;;;;;;17.53;12.83;;;-3.30;99.90;;;;;;5073740;28;20487;-77
2022/03/09 02:03:37;;;;;;;19.93;12.80;;;-3.30;99.90;;;;;;5074313;28;20520;-76
2022/03/09 02:06:06;;;;;;;18.07;12.33;;;-3.30;99.90;;;;;;5072978;28;20458;-77
2022/03/09 02:11:22;;;;;;;17.90;12.03;;;-3.30;99.90;;;;;;5072368;28;20458;-77
2022/03/09 02:13:50;;;;;;;18.27;11.47;;;-3.30;99.90;;;;;;5073650;28;20540;-77
2022/03/09 02:16:18;;;;;;;17.07;10.70;;;-3.30;99.90;;;;;;5072589;28;20482;-77
2022/03/09 02:18:46;;;;;;;15.87;11.40;;;-3.40;99.90;;;;;;5071817;28;21005;-79
2022/03/09 02:21:16;;;;;;;20.43;12.27;;;-3.40;99.90;;;;;;5072584;28;20572;-77
2022/03/09 02:23:47;;;;;;;16.67;11.90;;;-3.50;99.90;;;;;;5073260;28;20504;-76
2022/03/09 02:26:15;;;;;;;17.10;11.77;;;-3.50;99.90;;;;;;5073179;28;20854;-78
2022/03/09 02:28:47;;;;;;;19.07;12.33;;;-3.50;99.90;;;;;;5073395;28;20445;-77
2022/03/09 02:31:21;;;;;;;17.17;12.20;;;-3.50;99.90;;;;;;5072821;28;20894;-78
2022/03/09 02:33:52;;;;;;;17.00;11.07;;;-3.50;99.90;;;;;;5072618;28;20449;-76
2022/03/09 02:36:21;;;;;;;15.13;11.17;;;-3.50;99.90;;;;;;5073002;28;20429;-76
2022/03/09 02:38:51;;;;;;;18.30;11.93;;;-3.50;99.90;;;;;;5072817;28;20500;-77
2022/03/09 02:41:19;;;;;;;15.90;11.13;;;-3.50;99.90;;;;;;5072325;28;20575;-77
2022/03/09 02:43:47;;;;;;;19.37;11.63;;;-3.60;99.90;;;;;;5072517;28;20917;-78
2022/03/09 02:46:16;;;;;;;18.77;11.40;;;-3.60;99.90;;;;;;5072801;28;20470;-78
2022/03/09 02:48:45;;;;;;;15.70;11.23;;;-3.60;99.90;;;;;;5072477;28;20484;-77
2022/03/09 02:51:13;;;;;;;16.93;11.43;;;-3.60;99.90;;;;;;5072093;28;20453;-76
2022/03/09 02:53:41;;;;;;;15.87;11.30;;;-3.70;99.90;;;;;;5072356;28;20544;-76
2022/03/09 02:56:13;;;;;;;14.97;11.13;;;-3.70;99.90;;;;;;5072572;28;20484;-77
2022/03/09 02:58:42;;;;;;;18.57;12.00;;;-3.70;99.90;;;;;;5070156;28;20580;-76
2022/03/09 03:01:12;;;;;;;14.83;10.80;;;-3.70;99.90;;;;;;5053305;28;20516;-75
2022/03/09 03:03:44;;;;;;;14.73;10.53;;;-3.70;99.90;;;;;;5066390;28;20485;-73
2022/03/09 03:06:14;;;;;;;15.67;10.50;;;-3.70;99.90;;;;;;5070407;28;20812;-76
2022/03/09 03:08:44;;;;;;;16.93;10.50;;;-3.60;99.90;;;;;;5071012;28;20433;-78
2022/03/09 03:11:15;;;;;;;20.50;10.67;;;-3.50;99.90;;;;;;5071089;28;20477;-74
2022/03/09 03:13:49;;;;;;;14.93;10.60;;;-3.50;99.90;;;;;;5070663;28;20441;-76
2022/03/09 03:16:17;;;;;;;14.23;10.07;;;-3.50;99.90;;;;;;5070572;28;20452;-75
2022/03/09 03:18:48;;;;;;;16.17;10.80;;;-3.50;99.90;;;;;;5071876;28;20441;-77
2022/03/09 03:21:16;;;;;;;16.33;10.87;;;-3.60;99.90;;;;;;5071872;28;20570;-78
2022/03/09 03:23:49;;;;;;;13.67;10.10;;;-3.60;99.90;;;;;;5071879;28;20962;-78
2022/03/09 03:26:18;;;;;;;16.27;10.63;;;-3.60;99.90;;;;;;5072093;28;20547;-78
2022/03/09 03:28:46;;;;;;;16.07;10.53;;;-3.60;99.90;;;;;;5071831;28;20456;-77
2022/03/09 03:31:14;;;;;;;15.60;10.23;;;-3.60;99.90;;;;;;5053529;28;20503;-79
2022/03/09 03:33:42;;;;;;;15.47;10.63;;;-3.60;99.90;;;;;;5051558;28;20464;-79
2022/03/09 03:36:11;;;;;;;14.37;9.80;;;-3.70;99.90;;;;;;5051552;28;20449;-79
2022/03/09 03:38:39;;;;;;;15.90;10.53;;;-3.70;99.90;;;;;;5062807;28;20485;-78
2022/03/09 03:41:07;;;;;;;17.03;10.33;;;-3.70;99.90;;;;;;5071187;28;20488;-77
2022/03/09 03:43:37;;;;;;;15.10;10.43;;;-3.70;99.90;;;;;;5071946;28;20461;-76
2022/03/09 03:46:05;;;;;;;15.30;10.20;;;-3.80;99.90;;;;;;5071591;28;20493;-76
2022/03/09 03:48:34;;;;;;;15.50;10.33;;;-3.80;99.90;;;;;;5071539;28;20884;-77
2022/03/09 03:51:03;;;;;;;13.97;10.37;;;-3.90;99.90;;;;;;5071116;28;20481;-77
2022/03/09 03:53:31;;;;;;;16.13;10.43;;;-3.90;99.90;;;;;;5071576;28;20498;-78
2022/03/09 03:55:59;;;;;;;17.70;11.43;;;-4.00;99.90;;;;;;5071504;28;20487;-79
2022/03/09 03:58:28;;;;;;;16.10;10.93;;;-4.00;99.90;;;;;;5070135;28;20590;-76
2022/03/09 04:01:00;;;;;;;15.57;10.77;;;-4.10;99.90;;;;;;5054188;28;20457;-77
2022/03/09 04:03:28;;;;;;;16.20;10.97;;;-4.10;99.90;;;;;;5062285;28;20513;-77
2022/03/09 04:05:59;;;;;;;20.17;11.30;;;-4.10;99.90;;;;;;5069923;28;20446;-75
2022/03/09 04:08:28;;;;;;;15.37;11.23;;;-4.10;99.90;;;;;;5069854;28;20428;-77
2022/03/09 04:10:58;;;;;;;17.53;11.33;;;-4.20;99.90;;;;;;5069017;28;20858;-76
2022/03/09 04:13:26;;;;;;;16.80;11.10;;;-4.30;99.90;;;;;;5065387;28;20542;-78
2022/03/09 04:15:54;;;;;;;15.33;10.70;;;-4.30;99.90;;;;;;5069499;28;20456;-78
2022/03/09 04:18:24;;;;;;;15.13;10.83;;;-4.30;99.90;;;;;;5071383;28;20452;-76
2022/03/09 04:20:52;;;;;;;16.17;10.53;;;-4.40;99.90;;;;;;5070932;28;20540;-77
2022/03/09 04:23:20;;;;;;;16.93;11.27;;;-4.40;99.90;;;;;;5071041;28;21046;-76
2022/03/09 04:25:48;;;;;;;17.13;11.70;;;-4.40;99.90;;;;;;5071021;28;20461;-75
2022/03/09 04:28:22;;;;;;;16.50;11.20;;;-4.40;99.90;;;;;;5071164;28;20452;-76
2022/03/09 04:30:50;;;;;;;16.87;10.67;;;-4.50;99.90;;;;;;5071703;28;20452;-77
2022/03/09 04:33:18;;;;;;;17.20;11.70;;;-4.40;99.90;;;;;;5072109;28;20525;-76
2022/03/09 04:35:48;;;;;;;16.33;11.30;;;-4.50;99.90;;;;;;5075523;28;20441;-77
2022/03/09 04:38:19;;;;;;;16.63;11.00;;;-4.50;99.90;;;;;;5074831;28;20471;-76
2022/03/09 04:40:47;;;;;;;17.43;11.47;;;-4.50;99.90;;;;;;5075280;28;20591;-79
2022/03/09 04:43:15;;;;;;;18.80;11.27;;;-4.60;99.90;;;;;;5074861;28;20920;-77
2022/03/09 04:45:44;;;;;;;19.20;12.50;;;-4.60;99.90;;;;;;5074919;28;20496;-78
2022/03/09 04:48:12;;;;;;;22.50;13.10;;;-4.60;99.90;;;;;;5074934;28;20539;-76
2022/03/09 04:50:41;;;;;;;20.30;13.10;;;-4.60;99.90;;;;;;5073588;28;20812;-76
2022/03/09 04:53:11;;;;;;;22.37;13.33;;;-4.60;99.90;;;;;;5074308;28;20529;-76
2022/03/09 04:55:39;;;;;;;18.47;12.93;;;-4.60;99.90;;;;;;5074986;28;20835;-77
2022/03/09 04:58:07;;;;;;;19.73;12.67;;;-4.70;99.90;;;;;;5071792;28;20825;-76
2022/03/09 05:00:37;;;;;;;21.30;13.03;;;-4.60;99.90;;;;;;5074050;28;20451;-75
2022/03/09 05:03:06;;;;;;;19.23;12.63;;;-4.70;99.90;;;;;;5074178;28;20867;-76
2022/03/09 05:05:34;;;;;;;17.67;12.27;;;-4.70;99.90;;;;;;5074608;28;20444;-79
2022/03/09 05:08:02;;;;;;;20.47;12.20;;;-4.70;99.90;;;;;;5073845;28;20887;-77
2022/03/09 05:10:33;;;;;;;18.17;12.57;;;-4.70;99.90;;;;;;5074200;28;20453;-80
2022/03/09 05:13:02;;;;;;;19.70;12.63;;;-4.60;99.90;;;;;;5073664;28;20554;-77
2022/03/09 05:15:30;;;;;;;18.73;11.93;;;-4.70;99.90;;;;;;5076494;28;20541;-76
2022/03/09 05:17:59;;;;;;;20.77;11.97;;;-4.70;99.90;;;;;;5074383;28;20444;-79
2022/03/09 05:20:27;;;;;;;19.37;12.57;;;-4.70;99.90;;;;;;5074158;28;20980;-75
2022/03/09 05:22:57;;;;;;;17.70;12.30;;;-4.70;99.90;;;;;;5073925;28;20481;-78
2022/03/09 05:25:25;;;;;;;20.03;12.97;;;-4.70;99.90;;;;;;5075980;28;20861;-76
2022/03/09 05:27:55;;;;;;;21.83;13.40;;;-4.70;99.90;;;;;;5060540;28;20501;-76
2022/03/09 05:30:23;;;;;;;19.73;12.73;;;-4.70;99.90;;;;;;5054122;28;20435;-76
2022/03/09 05:32:54;;;;;;;23.27;12.33;;;-4.70;99.90;;;;;;5054258;28;20529;-76
2022/03/09 05:35:23;;;;;;;17.53;11.87;;;-4.70;99.90;;;;;;5063244;28;20435;-77
2022/03/09 05:37:51;;;;;;;20.60;12.20;;;-4.70;99.90;;;;;;5073978;28;20937;-76
2022/03/09 05:40:22;;;;;;;19.23;12.00;;;-4.70;99.90;;;;;;5073813;28;20540;-75
2022/03/09 05:42:52;;;;;;;17.30;11.03;;;-4.70;99.90;;;;;;5074146;28;20908;-77
2022/03/09 05:45:22;;;;;;;17.30;11.80;;;-4.70;99.90;;;;;;5073567;28;20476;-77
2022/03/09 05:47:53;;;;;;;17.97;12.27;;;-4.70;99.90;;;;;;5073830;28;20976;-77
2022/03/09 05:50:22;;;;;;;18.63;12.23;;;-4.80;99.90;;;;;;5072733;28;20535;-75
2022/03/09 05:52:51;;;;;;;18.57;11.90;;;-4.80;99.90;;;;;;5064411;28;20543;-75
2022/03/09 05:55:19;;;;;;;19.80;12.60;;;-4.70;99.90;;;;;;5053379;28;20456;-75
2022/03/09 05:57:47;;;;;;;20.67;13.00;;;-4.70;99.90;;;;;;5072284;28;20673;-76
2022/03/09 06:00:16;;;;;;;20.13;12.50;;;-4.70;99.90;;;;;;5072886;28;20502;-77
2022/03/09 06:02:48;;;;;;;18.20;12.83;;;-4.70;99.90;;;;;;5073240;28;20633;-75
2022/03/09 06:05:19;;;;;;;17.33;12.37;;;-4.70;99.90;;;;;;5072550;28;20449;-76
2022/03/09 06:07:49;;;;;;;22.60;13.00;;;-4.70;99.90;;;;;;5073693;28;20826;-76
2022/03/09 06:10:17;;;;;;;23.20;12.30;;;-4.60;99.90;;;;;;5055453;28;20551;-76
2022/03/09 06:12:45;;;;;;;19.90;11.97;;;-4.60;99.90;;;;;;5051004;28;20525;-75
2022/03/09 06:15:13;;;;;;;20.33;13.53;;;-4.60;99.90;;;;;;5050626;28;20547;-75
2022/03/09 06:17:45;;;;;;;19.43;12.83;;;-4.50;99.90;;;;;;5050826;28;20481;-76
2022/03/09 06:20:16;;;;;;;22.73;13.00;;;-4.50;99.90;;;;;;5051044;28;20561;-76
2022/03/09 06:22:44;;;;;;;21.80;13.03;;;-4.40;99.90;;;;;;5051290;28;20520;-78
2022/03/09 06:25:14;;;;;;;22.90;12.20;;;-4.40;99.90;;;;;;5052332;28;20555;-78
2022/03/09 06:27:43;;;;;;;22.77;12.80;;;-4.40;99.90;;;;;;5052961;28;20979;-77
2022/03/09 06:30:13;;;;;;;20.97;12.33;;;-4.30;99.90;;;;;;5052863;28;20496;-76
2022/03/09 06:32:42;;;;;;;21.77;13.23;;;-4.20;99.90;;;;;;5054114;28;20493;-77
2022/03/09 06:35:15;;;;;;;24.07;12.93;;;-4.10;99.90;;;;;;5054277;28;20484;-76
2022/03/09 06:37:46;;;;;;;18.53;12.47;;;-4.10;99.90;;;;;;5054554;28;20552;-75
2022/03/09 06:40:14;;;;;;;25.13;13.43;;;-4.00;99.90;;;;;;5054684;28;20453;-78
2022/03/09 06:42:42;;;;;;;21.70;13.17;;;-3.90;99.90;;;;;;5056666;28;20552;-76
2022/03/09 06:45:12;;;;;;;21.57;13.40;;;-3.80;99.90;;;;;;5053339;28;20459;-77
2022/03/09 06:47:40;;;;;;;21.33;13.10;;;-3.70;99.90;;;;;;5053322;28;20533;-78
2022/03/09 06:50:11;;;;;;;21.87;13.23;;;-3.60;99.90;;;;;;5052849;28;20544;-76
2022/03/09 06:52:41;;;;;;;20.20;13.60;;;-3.60;99.90;;;;;;5052771;28;20962;-79
2022/03/09 06:55:12;;;;;;;27.60;13.63;;;-3.50;99.90;;;;;;5052426;28;20505;-77
2022/03/09 06:57:40;;;;;;;17.33;12.07;;;-3.40;99.90;;;;;;5052336;28;20533;-74
2022/03/09 07:00:11;;;;;;;19.73;11.70;;;-3.20;99.90;;;;;;5052705;28;20956;-77
2022/03/09 07:02:43;;;;;;;19.97;12.67;;;-3.10;99.90;;;;;;5052886;28;20485;-76
2022/03/09 07:05:11;;;;;;;16.63;11.50;;;-3.00;99.90;;;;;;5052989;28;20456;-79
2022/03/09 07:07:41;;;;;;;23.00;11.93;;;-2.80;99.90;;;;;;5052569;28;20550;-75
2022/03/09 07:10:13;;;;;;;18.37;10.93;;;-2.70;99.90;;;;;;5052250;28;20543;-77
2022/03/09 07:13:05;;;;;;;30.43;21.17;;;-2.50;99.90;;;;;;5052355;28;20415;-77
2022/03/09 07:15:33;;;;;;;20.27;14.47;;;-2.40;99.90;;;;;;5052398;28;21004;-78
2022/03/09 07:18:01;;;;;;;16.03;10.27;;;-2.30;99.90;;;;;;5052563;28;20500;-77
2022/03/09 07:20:30;;;;;;;17.27;10.57;;;-2.20;99.90;;;;;;5052445;28;20493;-76
2022/03/09 07:23:03;;;;;;;15.67;9.90;;;-2.00;99.90;;;;;;5052687;28;20561;-76
2022/03/09 07:25:31;;;;;;;16.97;10.67;;;-1.80;99.90;;;;;;5069814;28;20445;-76
2022/03/09 07:28:08;;;;;;;16.00;10.13;;;-1.70;99.90;;;;;;5071571;28;20460;-79
2022/03/09 07:30:36;;;;;;;13.07;8.73;;;-1.50;99.90;;;;;;5072106;28;20445;-77
2022/03/09 07:33:05;;;;;;;15.67;9.77;;;-1.40;99.90;;;;;;5072189;28;20524;-77
2022/03/09 07:35:33;;;;;;;16.03;9.13;;;-1.30;99.90;;;;;;5072038;28;20485;-77
2022/03/09 07:38:04;;;;;;;16.33;9.10;;;-1.10;99.90;;;;;;5072238;28;20480;-76
2022/03/09 07:40:32;;;;;;;14.63;8.87;;;-0.90;99.90;;;;;;5071778;28;20903;-76
2022/03/09 07:43:01;;;;;;;13.07;9.30;;;-0.70;99.90;;;;;;5072116;28;20467;-76
2022/03/09 07:45:30;;;;;;;13.83;8.20;;;-0.50;99.90;;;;;;5072591;28;20480;-77
2022/03/09 07:48:01;;;;;;;10.40;7.73;;;-0.30;99.90;;;;;;5072228;28;20743;-77
2022/03/09 07:50:30;;;;;;;13.90;8.53;;;-0.10;99.90;;;;;;5071821;28;20450;-76
2022/03/09 07:53:05;;;;;;;12.50;7.57;;;0.10;99.90;;;;;;5072288;28;20491;-77
2022/03/09 07:55:36;;;;;;;9.20;6.83;;;0.40;99.90;;;;;;5071933;28;20461;-76
2022/03/09 07:58:04;;;;;;;14.40;7.00;;;0.80;99.90;;;;;;5071933;28;20493;-77
2022/03/09 08:00:32;;;;;;;10.57;6.77;;;1.20;99.90;;;;;;5068027;28;20250;-77
2022/03/09 08:03:03;;;;;;;11.33;7.40;;;2.00;99.90;;;;;;5062947;28;20209;-78
2022/03/09 08:05:51;;;;;;;14.20;7.63;;;3.00;98.10;;;;;;5069610;28;20561;-77
2022/03/09 08:08:22;;;;;;;10.37;7.30;;;5.10;95.50;;;;;;5051463;28;20294;-77
2022/03/09 08:10:50;;;;;;;12.67;7.63;;;6.80;91.40;;;;;;5055499;28;20228;-78
2022/03/09 08:13:19;;;;;;;11.33;7.50;;;8.60;86.20;;;;;;5055203;28;20246;-80
2022/03/09 08:15:47;;;;;;;10.50;7.10;;;9.60;78.50;;;;;;5055703;28;20208;-78
2022/03/09 08:18:15;;;;;;;11.57;6.90;;;11.00;71.30;;;;;;5058924;28;20215;-78
2022/03/09 08:20:44;;;;;;;12.50;7.30;;;11.50;71.70;;;;;;5074799;28;20207;-75
2022/03/09 08:23:12;;;;;;;8.10;6.37;;;13.00;66.30;;;;;;5075195;28;20277;-75
2022/03/09 08:25:42;;;;;;;7.40;6.30;;;13.30;57.00;;;;;;5075107;28;20204;-76
2022/03/09 08:28:13;;;;;;;9.33;7.20;;;13.20;58.20;;;;;;5075181;28;20381;-75
2022/03/09 08:30:41;;;;;;;10.33;6.93;;;13.50;57.40;;;;;;5074788;28;20207;-74
2022/03/09 08:33:10;;;;;;;7.67;6.40;;;13.90;55.40;;;;;;5075371;28;20217;-76
2022/03/09 08:35:39;;;;;;;7.97;6.13;;;14.30;54.50;;;;;;5075694;28;20215;-76
2022/03/09 08:38:07;;;;;;;10.13;6.77;;;14.80;54.30;;;;;;5075001;28;20522;-79
2022/03/09 08:40:35;;;;;;;8.03;6.67;;;15.20;53.40;;;;;;5075129;28;20571;-77
2022/03/09 08:43:05;;;;;;;9.53;7.50;;;15.50;51.80;;;;;;5074980;28;20204;-76
2022/03/09 08:45:34;;;;;;;8.93;6.68;;;15.60;51.00;;;;;;5074932;28;20316;-78
2022/03/09 08:48:02;;;;;;;10.40;6.77;;;15.90;51.60;;;;;;5074586;28;20726;-78
2022/03/09 08:50:30;;;;;;;7.83;6.27;;;15.00;50.30;;;;;;5074531;28;20220;-79
2022/03/09 08:53:06;;;;;;;7.40;6.63;;;14.10;53.00;;;;;;5074949;28;20210;-79
2022/03/09 08:55:35;;;;;;;7.93;6.60;;;14.10;53.30;;;;;;5074527;28;20253;-78
2022/03/09 08:58:05;;;;;;;9.68;6.65;;;14.70;52.30;;;;;;5074520;28;20298;-79
2022/03/09 09:00:33;;;;;;;7.68;6.47;;;15.80;50.60;;;;;;5074392;28;20220;-78
2022/03/09 09:03:01;;;;;;;7.65;6.47;;;15.00;52.50;;;;;;5074548;28;20211;-76
2022/03/09 09:05:30;;;;;;;8.38;6.70;;;14.80;50.20;;;;;;5074620;28;20231;-77
2022/03/09 09:07:59;;;;;;;10.32;6.35;;;15.70;48.30;;;;;;5074419;28;20243;-78
2022/03/09 09:10:34;;;;;;;8.10;6.22;;;15.90;49.10;;;;;;5074247;28;20735;-77
2022/03/09 09:13:03;;;;;;;8.32;5.90;;;15.40;49.10;;;;;;5074838;28;20265;-78
2022/03/09 09:15:32;;;;;;;8.88;6.35;;;15.50;47.20;;;;;;5074599;28;20200;-77
2022/03/09 09:18:04;;;;;;;8.15;6.13;;;16.40;48.20;;;;;;5074446;28;20298;-77
2022/03/09 09:20:52;;;;;;;10.10;6.15;;;16.90;47.60;;;;;;5073906;28;20196;-78
2022/03/09 09:23:20;;;;;;;8.75;6.60;;;17.30;46.70;;;;;;5074106;28;20230;-79
2022/03/09 09:25:49;;;;;;;9.82;6.28;;;17.40;45.20;;;;;;5074510;28;20246;-75
2022/03/09 09:28:21;;;;;;;7.07;5.88;;;17.00;46.20;;;;;;5074511;28;20293;-77
2022/03/09 09:30:54;;;;;;;6.68;5.47;;;16.50;45.60;;;;;;5073848;28;20211;-78
2022/03/09 09:33:22;;;;;;;5.72;5.10;;;17.30;45.60;;;;;;5074585;28;20203;-76
2022/03/09 09:35:51;;;;;;;8.10;5.80;;;17.30;45.90;;;;;;5074287;28;20211;-76
2022/03/09 09:38:19;;;;;;;9.00;5.65;;;17.80;44.10;;;;;;5073785;28;20243;-77
2022/03/09 09:40:53;;;;;;;7.88;5.40;;;17.10;44.60;;;;;;5073666;28;20211;-78
2022/03/09 09:43:21;;;;;;;14.75;12.68;;;17.50;43.40;;;;;;5074296;28;20187;-79
2022/03/09 09:45:52;;;;;;;11.43;5.63;;;18.30;44.00;;;;;;5074062;28;20234;-78
2022/03/09 09:48:20;;;;;;;10.48;6.53;;;18.70;42.40;;;;;;5073930;28;20242;-77
2022/03/09 09:50:54;;;;;;;6.88;5.72;;;18.50;41.60;;;;;;5073293;28;20247;-77
2022/03/09 09:53:24;;;;;;;7.65;6.00;;;17.20;42.50;;;;;;5073840;28;20273;-77
2022/03/09 09:55:52;;;;;;;6.80;5.80;;;16.60;44.40;;;;;;5073934;28;20271;-77
2022/03/09 09:58:21;;;;;;;6.40;5.27;;;15.90;43.30;;;;;;5073840;28;20235;-77
2022/03/09 10:00:51;;;;;;;6.72;5.30;;;17.00;44.80;;;;;;5073404;28;20312;-79
2022/03/09 10:03:19;;;;;;;5.82;4.88;;;17.30;42.70;;;;;;5073259;28;20257;-77
2022/03/09 10:05:47;;;;;;;6.93;4.82;;;18.20;42.30;;;;;;5073304;28;20262;-77
2022/03/09 10:08:18;;;;;;;6.68;4.97;;;17.50;41.10;;;;;;5073524;28;20261;-77
2022/03/09 10:10:55;;;;;;;8.35;4.90;;;17.70;41.10;;;;;;5072992;28;20238;-78
2022/03/09 10:13:27;;;;;;;5.28;4.57;;;18.10;40.60;;;;;;5073447;28;20207;-75
2022/03/09 10:16:11;;;;;;;5.63;4.80;;;18.70;39.60;;;;;;5073726;28;20222;-78
2022/03/09 10:18:41;;;;;;;6.10;4.13;;;18.50;40.40;;;;;;5073264;28;20227;-76
2022/03/09 10:21:12;;;;;;;8.73;4.90;;;19.00;40.40;;;;;;5072378;28;20426;-76
2022/03/09 10:23:54;;;;;;;6.85;4.95;;;17.60;41.40;;;;;;5072665;28;20981;-76
2022/03/09 10:26:25;;;;;;;5.22;4.32;;;18.40;39.00;;;;;;5073452;28;20286;-79
2022/03/09 10:28:58;;;;;;;6.50;5.20;;;18.30;39.80;;;;;;5072575;28;20234;-77
2022/03/09 10:31:36;;;;;;;5.45;4.55;;;18.10;39.00;;;;;;5072003;28;20226;-78
2022/03/09 10:34:09;;;;;;;5.85;4.43;;;18.70;40.10;;;;;;5073098;28;20568;-78
2022/03/09 10:36:38;;;;;;;5.28;4.65;;;18.90;38.80;;;;;;5072875;28;20211;-77
2022/03/09 10:39:14;;;;;;;5.65;5.05;;;18.80;38.30;;;;;;5072438;28;20243;-77
2022/03/09 10:41:43;;;;;;;5.80;4.53;;;18.70;38.70;;;;;;5072225;28;20203;-78
2022/03/09 10:44:12;;;;;;;8.98;4.90;;;18.90;37.80;;;;;;5072502;28;20232;-79
2022/03/09 10:46:45;;;;;;;6.93;5.55;;;19.10;38.50;;;;;;5072615;28;20224;-77
2022/03/09 10:49:14;;;;;;;6.95;4.57;;;18.10;38.70;;;;;;5072090;28;20642;-77
2022/03/09 10:51:44;;;;;;;6.40;5.00;;;17.50;38.30;;;;;;5071855;28;20243;-78
2022/03/09 10:54:16;;;;;;;5.57;4.82;;;18.10;39.50;;;;;;5071876;28;20653;-76
2022/03/09 10:56:45;;;;;;;10.33;5.30;;;17.90;39.40;;;;;;5072239;28;20612;-78
2022/03/09 10:59:16;;;;;;;7.43;4.97;;;17.00;39.70;;;;;;5072507;28;20284;-77
2022/03/09 11:02:03;;;;;;;5.83;5.00;;;16.60;41.30;;;;;;5072340;28;20199;-77
2022/03/09 11:04:35;;;;;;;5.80;5.20;;;17.70;41.10;;;;;;5072539;28;20276;-76
2022/03/09 11:07:03;;;;;;;6.18;4.95;;;18.00;40.60;;;;;;5072143;28;20192;-77
2022/03/09 11:09:32;;;;;;;8.25;4.85;;;19.00;39.30;;;;;;5076079;28;20191;-76
2022/03/09 11:12:01;;;;;;;5.95;5.32;;;18.80;38.20;;;;;;5072273;28;20297;-78
2022/03/09 11:14:29;;;;;;;8.68;4.93;;;19.00;40.50;;;;;;5072377;28;20678;-76
2022/03/09 11:17:00;;;;;;;8.85;5.50;;;19.40;40.30;;;;;;5072378;28;20235;-77
2022/03/09 11:19:29;;;;;;;9.10;5.60;;;19.10;38.50;;;;;;5072530;28;20239;-76
2022/03/09 11:21:57;;;;;;;8.80;5.72;;;18.70;38.60;;;;;;5072107;28;20215;-77
2022/03/09 11:24:26;;;;;;;7.50;5.28;;;18.60;39.20;;;;;;5072088;28;20250;-78
2022/03/09 11:26:57;;;;;;;7.20;5.50;;;18.00;40.40;;;;;;5072297;28;20314;-77
2022/03/09 11:29:33;;;;;;;10.70;7.07;;;17.40;41.30;;;;;;5072146;28;20265;-78
2022/03/09 11:32:04;;;;;;;6.97;5.80;;;16.90;40.70;;;;;;5072007;28;20191;-80
2022/03/09 11:34:42;;;;;;;7.43;5.40;;;17.30;42.00;;;;;;5071837;28;20237;-78
2022/03/09 11:37:12;;;;;;;8.37;6.00;;;17.80;41.60;;;;;;5071709;28;20260;-77
2022/03/09 11:39:43;;;;;;;8.73;7.10;;;17.80;41.10;;;;;;5072128;28;20666;-77
2022/03/09 11:42:35;;;;;;;8.07;5.13;;;17.70;40.30;;;;;;5072141;28;20203;-78
2022/03/09 11:45:30;;;;;;;7.43;5.17;;;18.50;39.90;;;;;;5072388;28;20191;-79
2022/03/09 11:48:04;;;;;;;6.63;5.60;;;18.50;38.90;;;;;;5072057;28;20188;-77
2022/03/09 11:50:35;;;;;;;7.37;5.50;;;17.00;40.00;;;;;;5071602;28;20685;-76
2022/03/09 11:53:06;;;;;;;8.70;5.60;;;16.70;40.40;;;;;;5071756;28;20536;-77
2022/03/09 11:55:36;;;;;;;7.87;5.47;;;16.70;41.20;;;;;;5072005;28;20195;-77
2022/03/09 11:58:11;;;;;;;8.23;5.77;;;17.50;41.50;;;;;;5071576;28;20496;-77
2022/03/09 12:01:02;;;;;;;8.13;5.70;;;16.80;41.20;;;;;;5071598;28;20250;-77
2022/03/09 12:03:39;;;;;;;7.87;5.77;;;16.20;42.10;;;;;;5072350;28;20620;-78
2022/03/09 12:06:41;;;;;;;8.37;5.87;;;15.50;43.20;;;;;;5071593;28;20294;-78
2022/03/09 12:09:10;;;;;;;7.00;5.50;;;15.40;44.50;;;;;;5071875;28;20256;-77
2022/03/09 12:12:08;;;;;;;9.83;5.73;;;14.80;43.40;;;;;;5071829;28;20280;-77
2022/03/09 12:15:01;;;;;;;8.73;5.70;;;14.80;43.70;;;;;;5073374;28;20665;-77
2022/03/09 12:17:30;;;;;;;7.93;5.47;;;14.70;43.50;;;;;;5074708;28;20260;-77
2022/03/09 12:20:19;;;;;;;7.90;5.40;;;14.20;44.00;;;;;;5075676;28;20214;-78
2022/03/09 12:23:04;;;;;;;10.90;5.77;;;13.70;44.80;;;;;;5071737;28;20568;-78
2022/03/09 12:25:39;;;;;;;6.83;5.60;;;13.80;46.00;;;;;;5071707;28;20241;-76
2022/03/09 12:28:53;;;;;;;7.67;5.50;;;13.70;44.80;;;;;;5071740;28;20219;-75
2022/03/09 12:31:23;;;;;;;7.17;5.60;;;13.60;45.70;;;;;;5024134;28;20342;-77
2022/03/09 12:33:54;;;;;;;8.37;5.57;;;13.90;46.00;;;;;;5072073;28;20223;-76
2022/03/09 12:36:25;;;;;;;7.00;5.03;;;13.90;45.50;;;;;;5073281;28;20188;-77
2022/03/09 12:38:58;;;;;;;6.53;5.50;;;13.70;44.70;;;;;;5071616;28;20207;-77
2022/03/09 12:41:30;;;;;;;6.60;5.23;;;13.80;44.90;;;;;;5071122;28;20243;-78
2022/03/09 12:44:01;;;;;;;8.30;5.50;;;13.70;46.20;;;;;;5071216;28;20314;-76
2022/03/09 12:46:31;;;;;;;7.90;5.40;;;13.30;44.90;;;;;;5071500;28;20251;-78
2022/03/09 12:49:05;;;;;;;7.90;5.40;;;13.00;46.20;;;;;;5071655;28;20195;-76
2022/03/09 12:51:35;;;;;;;6.53;5.50;;;13.00;46.70;;;;;;5072534;28;20576;-77
2022/03/09 12:54:41;;;;;;;8.43;5.30;;;13.30;47.30;;;;;;5072704;28;20211;-78
2022/03/09 12:57:11;;;;;;;10.53;5.70;;;13.50;45.60;;;;;;5075338;28;20192;-77